createdAt,value
2022-12-09T00:00:01.988Z,15.90
2022-12-09T00:02:31.919Z,14.13
2022-12-09T00:05:07.021Z,13.87
2022-12-09T00:07:38.105Z,15.40
2022-12-09T00:10:10.034Z,16.63
2022-12-09T00:12:40.330Z,17.57
2022-12-09T00:15:10.255Z,14.83
2022-12-09T00:17:40.007Z,16.97
2022-12-09T00:20:15.131Z,15.10
2022-12-09T00:22:46.058Z,15.17
2022-12-09T00:25:15.658Z,15.40
2022-12-09T00:27:45.328Z,14.57
2022-12-09T00:30:15.490Z,13.57
2022-12-09T00:32:45.611Z,16.50
2022-12-09T00:35:17.668Z,15.17
2022-12-09T00:37:47.959Z,14.30
2022-12-09T00:40:18.904Z,14.40
2022-12-09T00:42:48.920Z,17.10
2022-12-09T00:45:18.760Z,15.57
2022-12-09T00:47:51.632Z,14.60
2022-12-09T00:50:23.927Z,14.47
2022-12-09T00:52:53.204Z,15.67
2022-12-09T00:55:22.828Z,15.60
2022-12-09T00:57:52.567Z,15.47
2022-12-09T01:00:22.430Z,15.47
2022-12-09T01:02:52.335Z,18.07
2022-12-09T01:05:24.137Z,16.97
2022-12-09T01:07:54.251Z,16.70
2022-12-09T01:10:24.727Z,14.80
2022-12-09T01:12:54.638Z,17.27
2022-12-09T01:15:24.981Z,15.97
2022-12-09T01:17:55.320Z,14.87
2022-12-09T01:20:26.670Z,15.57
2022-12-09T01:22:56.683Z,16.13
2022-12-09T01:25:26.620Z,15.57
2022-12-09T01:27:56.676Z,16.20
2022-12-09T01:30:27.175Z,16.30
2022-12-09T01:32:57.509Z,16.90
2022-12-09T01:35:29.397Z,14.10
2022-12-09T01:37:59.307Z,16.27
2022-12-09T01:40:29.059Z,13.77
2022-12-09T01:42:59.185Z,16.30
2022-12-09T01:45:43.773Z,16.07
2022-12-09T01:48:15.522Z,15.90
2022-12-09T01:50:52.595Z,14.17
2022-12-09T01:53:25.115Z,15.77
2022-12-09T01:55:56.560Z,16.03
2022-12-09T01:58:27.219Z,15.80
2022-12-09T02:00:57.052Z,14.90
2022-12-09T02:03:26.993Z,15.80
2022-12-09T02:05:58.518Z,14.43
2022-12-09T02:08:28.900Z,15.43
2022-12-09T02:11:06.343Z,16.87
2022-12-09T02:13:41.990Z,17.70
2022-12-09T02:16:14.890Z,15.57
2022-12-09T02:18:48.387Z,14.17
2022-12-09T02:21:23.962Z,15.33
2022-12-09T02:24:00.337Z,16.33
2022-12-09T02:26:35.718Z,15.90
2022-12-09T02:29:41.819Z,15.07
2022-12-09T02:32:42.141Z,14.30
2022-12-09T02:35:16.992Z,14.90
2022-12-09T02:37:52.168Z,14.77
2022-12-09T02:40:24.521Z,14.13
2022-12-09T02:42:54.240Z,13.63
2022-12-09T02:45:26.864Z,13.87
2022-12-09T02:47:58.232Z,13.27
2022-12-09T02:50:33.382Z,13.60
2022-12-09T02:53:07.695Z,13.90
2022-12-09T02:55:38.444Z,12.77
2022-12-09T02:58:08.813Z,14.00
2022-12-09T03:00:39.474Z,13.50
2022-12-09T03:03:15.311Z,14.40
2022-12-09T03:05:52.601Z,14.30
2022-12-09T03:08:31.810Z,14.90
2022-12-09T03:11:04.415Z,14.20
2022-12-09T03:13:41.866Z,12.73
2022-12-09T03:16:16.287Z,14.73
2022-12-09T03:18:50.206Z,15.27
2022-12-09T03:21:24.598Z,13.93
2022-12-09T03:23:57.342Z,14.77
2022-12-09T03:26:32.031Z,13.93
2022-12-09T03:29:04.717Z,13.70
2022-12-09T03:31:35.216Z,15.37
2022-12-09T03:34:07.092Z,14.50
2022-12-09T03:36:40.395Z,13.83
2022-12-09T03:39:14.969Z,15.17
2022-12-09T03:41:48.216Z,14.17
2022-12-09T03:44:21.975Z,14.90
2022-12-09T03:46:52.225Z,15.77
2022-12-09T03:49:22.186Z,14.60
2022-12-09T03:51:57.401Z,13.80
2022-12-09T03:54:30.346Z,15.33
2022-12-09T03:57:01.282Z,15.50
2022-12-09T03:59:35.969Z,14.30
2022-12-09T04:02:07.809Z,15.90
2022-12-09T04:04:42.146Z,14.07
2022-12-09T04:07:17.557Z,14.57
2022-12-09T04:09:47.842Z,16.03
2022-12-09T04:12:18.276Z,15.70
2022-12-09T04:14:48.466Z,15.70
2022-12-09T04:17:18.122Z,16.37
2022-12-09T04:19:48.039Z,15.30
2022-12-09T04:22:20.667Z,16.47
2022-12-09T04:24:50.667Z,18.63
2022-12-09T04:27:20.532Z,17.97
2022-12-09T04:29:50.157Z,18.13
2022-12-09T04:32:20.381Z,16.50
2022-12-09T04:34:50.756Z,16.80
2022-12-09T04:37:22.590Z,16.07
2022-12-09T04:39:52.359Z,16.00
2022-12-09T04:42:22.531Z,16.03
2022-12-09T04:44:52.695Z,14.20
2022-12-09T04:47:22.432Z,15.87
2022-12-09T04:49:53.441Z,16.17
2022-12-09T04:52:25.303Z,15.70
2022-12-09T04:54:55.899Z,15.30
2022-12-09T04:57:25.617Z,17.67
2022-12-09T04:59:55.139Z,17.30
2022-12-09T05:02:25.319Z,16.87
2022-12-09T05:04:55.753Z,16.47
2022-12-09T05:07:28.324Z,18.00
2022-12-09T05:09:59.475Z,16.43
2022-12-09T05:12:29.692Z,18.30
2022-12-09T05:14:59.578Z,15.53
2022-12-09T05:17:29.760Z,15.07
2022-12-09T05:19:59.744Z,16.70
2022-12-09T05:22:31.016Z,15.97
2022-12-09T05:25:01.143Z,15.50
2022-12-09T05:27:31.949Z,16.23
2022-12-09T05:30:01.923Z,16.37
2022-12-09T05:32:32.144Z,17.00
2022-12-09T05:35:02.147Z,14.50
2022-12-09T05:37:33.529Z,16.20
2022-12-09T05:40:03.203Z,16.47
2022-12-09T05:42:39.417Z,16.87
2022-12-09T05:45:12.648Z,16.17
2022-12-09T05:47:43.455Z,19.07
2022-12-09T05:50:13.905Z,16.60
2022-12-09T05:52:46.147Z,16.00
2022-12-09T05:55:16.017Z,15.23
2022-12-09T05:57:45.996Z,17.13
2022-12-09T06:00:17.151Z,15.93
2022-12-09T06:02:47.858Z,15.90
2022-12-09T06:05:18.248Z,16.80
2022-12-09T06:07:50.458Z,15.53
2022-12-09T06:10:20.607Z,15.97
2022-12-09T06:12:50.698Z,15.93
2022-12-09T06:15:22.106Z,16.40
2022-12-09T06:17:54.536Z,16.27
2022-12-09T06:20:25.280Z,18.53
2022-12-09T06:22:57.601Z,17.70
2022-12-09T06:25:27.917Z,18.17
2022-12-09T06:27:58.489Z,16.67
2022-12-09T06:30:31.966Z,17.87
2022-12-09T06:33:09.217Z,16.70
2022-12-09T06:35:47.557Z,15.73
2022-12-09T06:38:19.760Z,16.27
2022-12-09T06:40:50.304Z,17.10
2022-12-09T06:43:20.647Z,16.73
2022-12-09T06:45:50.330Z,18.17
2022-12-09T06:48:20.856Z,17.10
2022-12-09T06:50:52.129Z,15.30
2022-12-09T06:53:24.185Z,15.17
2022-12-09T06:55:54.144Z,18.43
2022-12-09T06:58:24.408Z,18.17
2022-12-09T07:00:54.487Z,17.27
2022-12-09T07:03:24.628Z,18.97
2022-12-09T07:05:54.669Z,19.23
2022-12-09T07:08:26.252Z,17.83
2022-12-09T07:10:58.133Z,19.47
2022-12-09T07:13:28.283Z,18.20
2022-12-09T07:15:57.617Z,18.30
2022-12-09T07:18:27.613Z,17.40
2022-12-09T07:20:57.627Z,20.80
2022-12-09T07:23:29.005Z,18.70
2022-12-09T07:26:02.356Z,16.80
2022-12-09T07:28:32.196Z,18.90
2022-12-09T07:31:02.489Z,18.20
2022-12-09T07:33:35.117Z,17.83
2022-12-09T07:36:05.783Z,16.90
2022-12-09T07:38:39.939Z,17.70
2022-12-09T07:41:18.339Z,19.57
2022-12-09T07:43:48.987Z,18.00
2022-12-09T07:46:22.035Z,18.87
2022-12-09T07:48:52.207Z,17.90
2022-12-09T07:51:25.154Z,18.30
2022-12-09T07:53:59.501Z,19.30
2022-12-09T07:56:30.250Z,19.20
2022-12-09T07:59:00.860Z,18.47
2022-12-09T08:01:32.358Z,19.73
2022-12-09T08:04:07.692Z,18.77
2022-12-09T08:06:40.125Z,18.37
2022-12-09T08:09:14.567Z,21.97
2022-12-09T08:11:46.149Z,20.17
2022-12-09T08:14:16.290Z,18.80
2022-12-09T08:16:47.850Z,21.27
2022-12-09T08:19:18.762Z,19.90
2022-12-09T08:21:54.519Z,20.13
2022-12-09T08:24:26.742Z,18.57
2022-12-09T08:26:56.619Z,21.27
2022-12-09T08:29:26.206Z,20.43
2022-12-09T08:31:56.061Z,19.77
2022-12-09T08:34:26.348Z,21.87
2022-12-09T08:37:01.746Z,21.00
2022-12-09T08:39:33.704Z,21.17
2022-12-09T08:42:03.730Z,20.67
2022-12-09T08:44:33.657Z,19.77
2022-12-09T08:47:03.590Z,21.70
2022-12-09T08:49:33.999Z,21.23
2022-12-09T08:52:03.924Z,21.83
2022-12-09T08:54:35.164Z,19.00
2022-12-09T08:57:05.851Z,21.03
2022-12-09T08:59:39.985Z,21.30
2022-12-09T09:02:13.561Z,20.57
2022-12-09T09:04:43.648Z,20.53
2022-12-09T09:07:16.832Z,21.53
2022-12-09T09:09:49.614Z,20.53
2022-12-09T09:12:19.593Z,21.13
2022-12-09T09:14:49.698Z,21.80
2022-12-09T09:17:19.731Z,20.83
2022-12-09T09:19:50.493Z,22.43
2022-12-09T09:22:20.329Z,21.17
2022-12-09T09:24:58.926Z,21.33
2022-12-09T09:27:29.003Z,20.43
2022-12-09T09:30:01.465Z,21.10
2022-12-09T09:32:32.900Z,22.57
2022-12-09T09:35:03.306Z,20.53
2022-12-09T09:37:34.323Z,20.87
2022-12-09T09:40:06.940Z,19.57
2022-12-09T09:42:39.210Z,20.80
2022-12-09T09:45:11.953Z,19.23
2022-12-09T09:47:46.269Z,19.70
2022-12-09T09:50:28.524Z,22.93
2022-12-09T09:52:59.130Z,18.57
2022-12-09T09:55:40.283Z,18.93
2022-12-09T09:58:19.874Z,20.60
2022-12-09T10:00:54.117Z,19.60
2022-12-09T10:03:32.642Z,20.73
2022-12-09T10:06:08.761Z,19.40
2022-12-09T10:08:43.501Z,19.27
2022-12-09T10:11:20.447Z,19.27
2022-12-09T10:14:01.686Z,19.63
2022-12-09T10:16:37.818Z,20.00
2022-12-09T10:19:13.909Z,19.37
2022-12-09T10:21:45.378Z,19.40
2022-12-09T10:24:23.620Z,20.10
2022-12-09T10:27:14.640Z,18.60
2022-12-09T10:29:57.826Z,18.53
2022-12-09T10:32:32.497Z,21.40
2022-12-09T10:35:03.391Z,17.33
2022-12-09T10:37:35.314Z,20.87
2022-12-09T10:40:24.922Z,19.97
2022-12-09T10:43:15.307Z,18.70
2022-12-09T10:48:40.350Z,19.50
2022-12-09T10:51:14.460Z,18.77
2022-12-09T10:53:53.251Z,19.40
2022-12-09T10:56:26.618Z,19.67
2022-12-09T10:59:18.742Z,20.00
2022-12-09T11:01:54.717Z,19.83
2022-12-09T11:04:26.975Z,20.50
2022-12-09T11:07:00.840Z,18.30
2022-12-09T11:09:33.483Z,20.60
2022-12-09T11:12:06.169Z,22.80
2022-12-09T11:14:40.477Z,20.90
2022-12-09T11:17:17.825Z,21.67
2022-12-09T11:19:52.322Z,20.67
2022-12-09T11:22:39.463Z,20.33
2022-12-09T11:25:27.368Z,23.30
2022-12-09T11:27:59.084Z,21.70
2022-12-09T11:30:33.415Z,22.17
2022-12-09T11:33:08.752Z,22.23
2022-12-09T11:35:55.714Z,20.67
2022-12-09T11:38:35.579Z,23.60
2022-12-09T11:41:41.325Z,21.90
2022-12-09T11:44:24.747Z,19.77
2022-12-09T11:47:11.708Z,22.77
2022-12-09T11:49:53.821Z,22.90
2022-12-09T11:52:30.034Z,21.47
2022-12-09T11:55:13.483Z,21.17
2022-12-09T11:57:48.279Z,22.17
2022-12-09T12:00:24.735Z,20.17
2022-12-09T12:03:05.266Z,20.00
2022-12-09T12:05:39.823Z,19.93
2022-12-09T12:08:17.762Z,20.00
2022-12-09T12:10:51.628Z,21.00
2022-12-09T12:13:24.388Z,18.67
2022-12-09T12:16:02.394Z,24.73
2022-12-09T12:18:38.583Z,20.00
2022-12-09T12:21:39.143Z,21.37
2022-12-09T12:24:23.318Z,20.10
2022-12-09T12:27:03.464Z,19.20
2022-12-09T12:29:42.202Z,23.30
2022-12-09T12:32:29.642Z,22.30
2022-12-09T12:35:31.032Z,20.93
2022-12-09T12:38:10.553Z,21.10
2022-12-09T12:40:45.168Z,22.83
2022-12-09T12:43:46.879Z,23.10
2022-12-09T12:46:30.624Z,21.13
2022-12-09T12:49:18.907Z,20.33
2022-12-09T12:51:58.384Z,20.67
2022-12-09T12:54:38.313Z,21.13
2022-12-09T12:57:16.233Z,23.47
2022-12-09T12:59:55.023Z,22.57
2022-12-09T13:02:34.795Z,20.63
2022-12-09T13:05:07.188Z,20.00
2022-12-09T13:07:42.902Z,22.87
2022-12-09T13:10:19.553Z,22.13
2022-12-09T13:12:58.968Z,21.43
2022-12-09T13:15:32.855Z,22.47
2022-12-09T13:18:11.307Z,22.73
2022-12-09T13:20:47.798Z,23.00
2022-12-09T13:23:50.153Z,20.87
2022-12-09T13:26:28.384Z,22.80
2022-12-09T13:29:05.060Z,24.50
2022-12-09T13:31:37.507Z,20.50
2022-12-09T13:34:18.987Z,21.57
2022-12-09T13:36:50.207Z,21.37
2022-12-09T13:39:53.362Z,20.27
2022-12-09T13:42:56.820Z,21.30
2022-12-09T13:45:35.923Z,20.50
2022-12-09T13:48:28.982Z,21.63
2022-12-09T13:50:59.930Z,20.87
2022-12-09T13:53:33.994Z,21.03
2022-12-09T13:56:07.419Z,28.03
2022-12-09T13:59:16.697Z,23.53
2022-12-09T14:01:52.104Z,22.20
2022-12-09T14:04:24.763Z,19.47
2022-12-09T14:07:02.767Z,24.67
2022-12-09T14:09:40.564Z,21.30
2022-12-09T14:12:13.303Z,19.90
2022-12-09T14:14:54.984Z,21.20
2022-12-09T14:17:58.041Z,21.83
2022-12-09T14:20:30.880Z,22.63
2022-12-09T14:23:19.922Z,19.67
2022-12-09T14:26:05.909Z,22.13
2022-12-09T14:28:54.088Z,26.23
2022-12-09T14:32:00.363Z,23.50
2022-12-09T14:34:41.317Z,26.77
2022-12-09T14:37:30.723Z,25.37
2022-12-09T14:40:07.186Z,26.13
2022-12-09T14:42:44.554Z,23.50
2022-12-09T14:45:27.423Z,21.10
2022-12-09T14:47:58.700Z,20.00
2022-12-09T14:50:30.086Z,20.73
2022-12-09T14:53:03.084Z,21.60
2022-12-09T14:55:42.675Z,22.63
2022-12-09T14:58:20.976Z,20.67
2022-12-09T15:01:02.545Z,21.50
2022-12-09T15:03:42.858Z,21.73
2022-12-09T15:06:20.023Z,20.93
2022-12-09T15:08:52.784Z,21.57
2022-12-09T15:11:23.995Z,21.40
2022-12-09T15:13:55.734Z,23.03
2022-12-09T15:16:28.875Z,21.90
2022-12-09T15:18:59.964Z,18.80
2022-12-09T15:21:31.635Z,21.20
2022-12-09T15:24:01.944Z,22.07
2022-12-09T15:26:33.527Z,21.03
2022-12-09T15:29:05.689Z,22.20
2022-12-09T15:31:36.355Z,21.60
2022-12-09T15:34:23.218Z,21.50
2022-12-09T15:36:58.204Z,21.87
2022-12-09T15:39:31.089Z,23.13
2022-12-09T15:42:08.460Z,23.83
2022-12-09T15:44:42.275Z,25.20
2022-12-09T15:47:16.279Z,22.27
2022-12-09T15:49:52.492Z,20.93
2022-12-09T15:52:25.314Z,20.70
2022-12-09T15:54:55.529Z,23.10
2022-12-09T15:57:25.400Z,21.23
2022-12-09T15:59:59.709Z,22.57
2022-12-09T16:02:31.933Z,22.53
2022-12-09T16:05:06.290Z,23.10
2022-12-09T16:07:36.895Z,22.70
2022-12-09T16:10:13.564Z,25.20
2022-12-09T16:12:44.449Z,21.30
2022-12-09T16:15:36.881Z,21.07
2022-12-09T16:18:06.942Z,22.80
2022-12-09T16:20:45.386Z,22.07
2022-12-09T16:23:22.181Z,23.33
2022-12-09T16:25:52.084Z,23.90
2022-12-09T16:28:24.015Z,23.50
2022-12-09T16:30:57.257Z,21.40
2022-12-09T16:33:27.771Z,22.70
2022-12-09T16:36:04.258Z,20.63
2022-12-09T16:38:34.588Z,23.50
2022-12-09T16:41:12.874Z,23.43
2022-12-09T16:43:58.589Z,23.67
2022-12-09T16:46:40.192Z,23.50
2022-12-09T16:49:10.560Z,24.27
2022-12-09T16:51:42.604Z,26.00
2022-12-09T16:54:20.468Z,24.17
2022-12-09T16:56:52.470Z,22.07
2022-12-09T16:59:22.517Z,21.93
2022-12-09T17:01:52.201Z,24.67
2022-12-09T17:04:25.152Z,20.47
2022-12-09T17:06:56.864Z,21.50
2022-12-09T17:09:26.663Z,21.33
2022-12-09T17:11:56.289Z,21.97
2022-12-09T17:14:26.134Z,21.30
2022-12-09T17:16:55.781Z,22.43
2022-12-09T17:19:25.594Z,23.90
2022-12-09T17:21:58.100Z,23.67
2022-12-09T17:24:28.275Z,21.27
2022-12-09T17:26:58.476Z,23.10
2022-12-09T17:29:28.114Z,21.30
2022-12-09T17:31:58.398Z,22.30
2022-12-09T17:34:28.175Z,22.20
2022-12-09T17:37:00.157Z,21.20
2022-12-09T17:39:29.864Z,21.47
2022-12-09T17:41:59.544Z,19.00
2022-12-09T17:44:29.710Z,20.00
2022-12-09T17:46:59.209Z,20.03
2022-12-09T17:49:29.414Z,19.60
2022-12-09T17:52:01.124Z,19.47
2022-12-09T17:54:30.980Z,19.77
2022-12-09T17:57:00.399Z,19.87
2022-12-09T17:59:29.761Z,22.47
2022-12-09T18:01:59.853Z,19.73
2022-12-09T18:04:29.624Z,20.50
2022-12-09T18:07:00.733Z,21.53
2022-12-09T18:09:30.597Z,21.03
2022-12-09T18:11:59.996Z,20.90
2022-12-09T18:14:29.660Z,19.70
2022-12-09T18:16:59.704Z,22.80
2022-12-09T18:19:30.806Z,20.07
2022-12-09T18:22:01.883Z,24.93
2022-12-09T18:24:31.498Z,22.57
2022-12-09T18:27:02.529Z,22.33
2022-12-09T18:29:32.176Z,25.00
2022-12-09T18:32:02.883Z,23.83
2022-12-09T18:34:35.899Z,23.90
2022-12-09T18:37:07.047Z,23.93
2022-12-09T18:39:36.714Z,22.60
2022-12-09T18:42:07.606Z,23.97
2022-12-09T18:44:37.849Z,24.03
2022-12-09T18:47:07.622Z,25.23
2022-12-09T18:49:39.425Z,23.40
2022-12-09T18:52:11.238Z,22.93
2022-12-09T18:54:41.358Z,23.30
2022-12-09T18:57:10.943Z,24.00
2022-12-09T18:59:40.587Z,25.57
2022-12-09T19:02:12.194Z,24.80
2022-12-09T19:04:41.858Z,27.90
2022-12-09T19:07:15.845Z,28.83
2022-12-09T19:09:46.768Z,28.60
2022-12-09T19:12:45.858Z,28.03
2022-12-09T19:15:06.834Z,25.30
2022-12-09T19:17:36.634Z,24.83
2022-12-09T19:20:09.035Z,27.23
2022-12-09T19:22:40.603Z,27.87
2022-12-09T19:25:10.719Z,25.57
2022-12-09T19:27:40.947Z,27.10
2022-12-09T19:30:11.742Z,28.47
2022-12-09T19:32:56.962Z,26.10
2022-12-09T19:35:26.850Z,24.67
2022-12-09T19:38:01.408Z,23.63
2022-12-09T19:40:31.918Z,24.30
2022-12-09T19:43:01.944Z,27.77
2022-12-09T19:45:32.572Z,25.77
2022-12-09T19:48:02.603Z,23.97
2022-12-09T19:50:32.120Z,22.23
2022-12-09T19:53:03.315Z,24.00
2022-12-09T19:55:33.508Z,24.20
2022-12-09T19:58:04.112Z,27.13
2022-12-09T20:00:39.769Z,24.47
2022-12-09T20:03:11.834Z,28.57
2022-12-09T20:05:50.544Z,24.23
2022-12-09T20:08:23.333Z,23.70
2022-12-09T20:10:53.287Z,25.20
2022-12-09T20:13:26.083Z,25.60
2022-12-09T20:15:58.620Z,23.93
2022-12-09T20:18:28.514Z,25.27
2022-12-09T20:21:01.534Z,23.20
2022-12-09T20:23:33.184Z,26.50
2022-12-09T20:26:07.133Z,24.10
2022-12-09T20:28:37.785Z,24.80
2022-12-09T20:31:08.640Z,26.00
2022-12-09T20:33:39.823Z,24.27
2022-12-09T20:36:11.578Z,25.33
2022-12-09T20:38:43.959Z,24.57
2022-12-09T20:41:15.493Z,23.30
2022-12-09T20:43:47.913Z,23.10
2022-12-09T20:46:19.114Z,24.57
2022-12-09T20:48:49.440Z,23.10
2022-12-09T20:51:25.924Z,27.03
2022-12-09T20:53:58.020Z,24.33
2022-12-09T20:56:29.052Z,24.60
2022-12-09T20:58:59.575Z,25.90
2022-12-09T21:01:32.843Z,24.57
2022-12-09T21:04:03.660Z,28.40
2022-12-09T21:06:35.029Z,24.90
2022-12-09T21:09:08.467Z,26.77
2022-12-09T21:11:39.257Z,27.07
2022-12-09T21:14:09.839Z,24.57
2022-12-09T21:16:41.429Z,25.30
2022-12-09T21:19:15.059Z,28.27
2022-12-09T21:21:47.133Z,29.37
2022-12-09T21:24:19.288Z,26.43
2022-12-09T21:26:49.206Z,26.03
2022-12-09T21:29:18.923Z,24.67
2022-12-09T21:31:50.677Z,28.63
2022-12-09T21:34:20.501Z,31.30
2022-12-09T21:36:50.073Z,28.70
2022-12-09T21:39:21.453Z,28.03
2022-12-09T21:41:51.164Z,30.13
2022-12-09T21:44:22.664Z,30.00
2022-12-09T21:46:52.343Z,26.63
2022-12-09T21:49:22.159Z,29.10
2022-12-09T21:51:51.819Z,32.20
2022-12-09T21:54:22.778Z,29.23
2022-12-09T21:56:52.499Z,26.10
2022-12-09T21:59:22.718Z,30.37
2022-12-09T22:01:53.403Z,30.27
2022-12-09T22:04:22.947Z,26.37
2022-12-09T22:06:53.407Z,26.77
2022-12-09T22:09:25.349Z,28.90
2022-12-09T22:11:55.367Z,28.23
2022-12-09T22:14:25.322Z,29.57
2022-12-09T22:16:56.797Z,25.40
2022-12-09T22:19:28.279Z,27.40
2022-12-09T22:21:58.398Z,26.43
2022-12-09T22:24:30.193Z,27.83
2022-12-09T22:27:00.268Z,25.93
2022-12-09T22:29:29.778Z,25.93
2022-12-09T22:31:59.333Z,26.00
2022-12-09T22:34:28.973Z,27.43
2022-12-09T22:37:06.833Z,25.93
2022-12-09T22:39:50.350Z,25.00
2022-12-09T22:42:19.878Z,24.80
2022-12-09T22:44:49.574Z,24.87
2022-12-09T22:47:19.318Z,24.10
2022-12-09T22:49:48.947Z,25.23
2022-12-09T22:52:18.628Z,26.83
2022-12-09T22:54:49.897Z,24.77
2022-12-09T22:57:20.147Z,26.57
2022-12-09T22:59:49.819Z,24.63
2022-12-09T23:02:19.594Z,25.20
2022-12-09T23:04:49.849Z,25.00
2022-12-09T23:07:20.003Z,25.80
2022-12-09T23:09:51.548Z,25.90
2022-12-09T23:12:21.323Z,22.17
2022-12-09T23:14:50.922Z,25.87
2022-12-09T23:17:20.370Z,25.70
2022-12-09T23:19:49.728Z,25.70
2022-12-09T23:22:19.722Z,24.00
2022-12-09T23:24:53.454Z,22.70
2022-12-09T23:27:23.274Z,21.50
2022-12-09T23:29:52.823Z,21.17
2022-12-09T23:32:22.493Z,21.57
2022-12-09T23:34:52.323Z,21.20
2022-12-09T23:37:22.184Z,21.57
2022-12-09T23:39:55.577Z,22.47
2022-12-09T23:42:25.168Z,23.40
2022-12-09T23:44:54.488Z,23.47
2022-12-09T23:47:23.922Z,22.33
2022-12-09T23:49:53.504Z,23.40
2022-12-09T23:52:23.234Z,24.27
2022-12-09T23:54:57.449Z,25.70
2022-12-09T23:57:31.848Z,22.40
